Time;durP1;ratioP1;P1;durP2;ratioP2;P2;SDS_P1;SDS_P2;PMS_P1;PMS_P2;Temp;Humidity;BMP_temperature;BMP_pressure;BME280_temperature;BME280_humidity;BME280_pressure;Samples;Min_cycle;Max_cycle;Signal;HPM_P1;HPM_P2
2022/01/07 00:01:06;;;;;;;18.60;4.47;;;;;;;;;;5071863;28;20115;-79
2022/01/07 00:03:32;;;;;;;15.43;4.50;;;;;;;;;;5053731;28;20115;-79
2022/01/07 00:05:59;;;;;;;14.43;5.22;;;;;;;;;;5071966;28;20017;-79
2022/01/07 00:08:26;;;;;;;12.90;5.20;;;;;;;;;;5072393;28;20020;-79
2022/01/07 00:10:52;;;;;;;11.50;4.07;;;;;;;;;;5071758;28;20463;-79
2022/01/07 00:13:18;;;;;;;11.23;4.28;;;;;;;;;;5071277;28;20039;-79
2022/01/07 00:15:45;;;;;;;9.77;3.63;;;;;;;;;;5071756;28;20021;-78
2022/01/07 00:18:11;;;;;;;14.65;5.25;;;;;;;;;;5071482;28;20029;-78
2022/01/07 00:20:37;;;;;;;15.73;4.20;;;;;;;;;;5071522;28;20028;-78
2022/01/07 00:23:03;;;;;;;15.30;5.00;;;;;;;;;;5071681;28;20028;-78
2022/01/07 00:25:29;;;;;;;13.80;4.18;;;;;;;;;;5071544;28;20058;-77
2022/01/07 00:27:56;;;;;;;9.68;3.90;;;;;;;;;;5071612;28;20093;-78
2022/01/07 00:30:22;;;;;;;10.60;3.58;;;;;;;;;;5071384;28;20028;-78
2022/01/07 00:32:48;;;;;;;8.18;3.22;;;;;;;;;;5071405;28;20032;-78
2022/01/07 00:35:16;;;;;;;10.10;3.35;;;;;;;;;;5071379;28;20012;-78
2022/01/07 00:37:42;;;;;;;18.48;4.30;;;;;;;;;;5071306;28;20170;-79
2022/01/07 00:40:10;;;;;;;16.23;4.15;;;;;;;;;;5084150;28;20055;-78
2022/01/07 00:42:36;;;;;;;12.13;4.43;;;;;;;;;;5091452;28;20501;-78
2022/01/07 00:45:03;;;;;;;11.32;4.10;;;;;;;;;;5090347;28;20067;-77
2022/01/07 00:47:29;;;;;;;13.32;3.72;;;;;;;;;;5090362;28;20410;-79
2022/01/07 00:49:55;;;;;;;13.35;4.32;;;;;;;;;;5090337;28;20024;-78
2022/01/07 00:52:21;;;;;;;20.77;4.95;;;;;;;;;;5092585;28;20024;-79
2022/01/07 00:54:47;;;;;;;20.67;4.93;;;;;;;;;;5094544;28;20296;-78
2022/01/07 00:57:13;;;;;;;17.33;5.60;;;;;;;;;;5094499;28;20027;-78
2022/01/07 00:59:39;;;;;;;14.50;4.80;;;;;;;;;;5094923;28;20103;-78
2022/01/07 01:02:06;;;;;;;17.98;5.80;;;;;;;;;;5094822;28;20028;-78
2022/01/07 01:04:32;;;;;;;13.50;4.80;;;;;;;;;;5095277;28;20081;-78
2022/01/07 01:06:58;;;;;;;18.35;6.05;;;;;;;;;;5095092;28;20493;-79
2022/01/07 01:09:24;;;;;;;12.88;5.90;;;;;;;;;;5091977;28;20100;-79
2022/01/07 01:11:50;;;;;;;15.63;5.75;;;;;;;;;;5074588;28;20060;-79
2022/01/07 01:14:16;;;;;;;17.80;6.25;;;;;;;;;;5074822;28;20024;-79
2022/01/07 01:16:44;;;;;;;16.77;6.28;;;;;;;;;;5074810;28;20021;-79
2022/01/07 01:19:10;;;;;;;20.85;5.53;;;;;;;;;;5074614;28;20024;-79
2022/01/07 01:21:37;;;;;;;18.23;6.00;;;;;;;;;;5074703;28;20115;-78
2022/01/07 01:24:03;;;;;;;15.82;5.60;;;;;;;;;;5074308;28;20100;-78
2022/01/07 01:26:29;;;;;;;18.05;5.93;;;;;;;;;;5074343;28;20028;-78
2022/01/07 01:28:55;;;;;;;19.02;7.57;;;;;;;;;;5074345;28;20355;-79
2022/01/07 01:31:22;;;;;;;18.02;5.78;;;;;;;;;;5074526;28;20083;-78
2022/01/07 01:33:48;;;;;;;18.50;6.18;;;;;;;;;;5074448;28;20027;-79
2022/01/07 01:36:15;;;;;;;20.33;6.07;;;;;;;;;;5074910;28;20024;-79
2022/01/07 01:38:41;;;;;;;18.70;5.85;;;;;;;;;;5075517;28;20026;-79
2022/01/07 01:41:08;;;;;;;21.17;5.82;;;;;;;;;;5094328;28;20123;-78
2022/01/07 01:43:34;;;;;;;19.45;6.30;;;;;;;;;;5094176;28;20078;-78
2022/01/07 01:46:00;;;;;;;18.83;5.97;;;;;;;;;;5094185;28;20035;-78
2022/01/07 01:48:26;;;;;;;18.17;6.45;;;;;;;;;;5094051;28;20036;-78
2022/01/07 01:50:52;;;;;;;14.65;5.57;;;;;;;;;;5094160;28;20028;-79
2022/01/07 01:53:18;;;;;;;14.05;5.60;;;;;;;;;;5075787;28;20455;-78
2022/01/07 01:55:44;;;;;;;14.38;4.93;;;;;;;;;;5094013;28;20070;-79
2022/01/07 01:58:11;;;;;;;16.65;5.85;;;;;;;;;;5094023;28;20418;-78
2022/01/07 02:00:38;;;;;;;17.67;6.07;;;;;;;;;;5094075;28;20521;-78
2022/01/07 02:03:05;;;;;;;22.30;6.50;;;;;;;;;;5092773;28;20565;-78
2022/01/07 02:05:31;;;;;;;19.83;5.97;;;;;;;;;;5093930;28;20020;-78
2022/01/07 02:07:57;;;;;;;16.80;5.93;;;;;;;;;;5093664;28;20035;-78
2022/01/07 02:10:23;;;;;;;13.80;5.32;;;;;;;;;;5093779;28;20384;-78
2022/01/07 02:12:49;;;;;;;17.42;6.47;;;;;;;;;;5075487;28;20174;-78
2022/01/07 02:15:16;;;;;;;16.60;5.75;;;;;;;;;;5093605;28;20042;-78
2022/01/07 02:17:43;;;;;;;16.40;6.35;;;;;;;;;;5093537;28;20490;-78
2022/01/07 02:20:09;;;;;;;12.45;5.15;;;;;;;;;;5093798;28;20039;-79
2022/01/07 02:22:35;;;;;;;19.08;4.75;;;;;;;;;;5093700;28;20051;-78
2022/01/07 02:25:01;;;;;;;13.40;5.18;;;;;;;;;;5093310;28;20043;-79
2022/01/07 02:27:28;;;;;;;12.45;5.00;;;;;;;;;;5093198;28;20094;-78
2022/01/07 02:29:54;;;;;;;17.15;5.60;;;;;;;;;;5093134;28;20024;-78
2022/01/07 02:32:21;;;;;;;16.38;5.63;;;;;;;;;;5093237;28;20035;-78
2022/01/07 02:34:48;;;;;;;13.15;5.63;;;;;;;;;;5093116;28;20066;-79
2022/01/07 02:37:14;;;;;;;16.63;5.32;;;;;;;;;;5093230;28;20028;-79
2022/01/07 02:39:41;;;;;;;13.63;5.65;;;;;;;;;;5084279;28;20482;-79
2022/01/07 02:42:07;;;;;;;13.25;4.80;;;;;;;;;;5092661;28;20040;-79
2022/01/07 02:44:33;;;;;;;14.50;5.20;;;;;;;;;;5092820;28;20086;-78
2022/01/07 02:47:00;;;;;;;16.35;5.13;;;;;;;;;;5093003;28;20035;-78
2022/01/07 02:49:26;;;;;;;15.80;4.00;;;;;;;;;;5092894;28;20028;-79
2022/01/07 02:51:52;;;;;;;15.52;4.53;;;;;;;;;;5092977;28;20123;-78
2022/01/07 02:54:18;;;;;;;15.02;4.50;;;;;;;;;;5092791;28;20028;-78
2022/01/07 02:56:44;;;;;;;13.25;4.80;;;;;;;;;;5093081;28;20421;-79
2022/01/07 02:59:11;;;;;;;12.40;4.63;;;;;;;;;;5093065;28;20405;-78
2022/01/07 03:01:38;;;;;;;11.55;4.53;;;;;;;;;;5092960;28;20024;-78
2022/01/07 03:04:04;;;;;;;13.10;4.25;;;;;;;;;;5092640;28;20020;-78
2022/01/07 03:06:30;;;;;;;11.15;4.70;;;;;;;;;;5092553;28;20032;-79
2022/01/07 03:08:57;;;;;;;14.32;4.43;;;;;;;;;;5092534;28;20382;-79
2022/01/07 03:11:23;;;;;;;13.10;4.70;;;;;;;;;;5092771;28;20506;-79
2022/01/07 03:13:49;;;;;;;17.15;4.22;;;;;;;;;;5074247;28;20394;-79
2022/01/07 03:16:15;;;;;;;9.80;3.75;;;;;;;;;;5073946;28;20378;-79
2022/01/07 03:18:41;;;;;;;17.38;3.90;;;;;;;;;;5092656;28;20458;-79
2022/01/07 03:21:08;;;;;;;11.88;3.72;;;;;;;;;;5092764;28;20050;-79
2022/01/07 03:23:36;;;;;;;9.25;4.03;;;;;;;;;;5092487;28;20473;-79
2022/01/07 03:26:02;;;;;;;11.10;3.92;;;;;;;;;;5092630;28;20490;-79
2022/01/07 03:28:28;;;;;;;8.73;3.75;;;;;;;;;;5092674;28;20556;-79
2022/01/07 03:30:54;;;;;;;9.88;4.22;;;;;;;;;;5092701;28;20351;-79
2022/01/07 03:33:20;;;;;;;12.68;4.28;;;;;;;;;;5092570;28;20063;-79
2022/01/07 03:35:46;;;;;;;10.68;3.92;;;;;;;;;;5092480;28;20035;-79
2022/01/07 03:38:13;;;;;;;12.93;4.40;;;;;;;;;;5086699;28;20027;-79
2022/01/07 03:40:39;;;;;;;16.70;4.40;;;;;;;;;;5089816;28;20040;-79
2022/01/07 03:43:05;;;;;;;11.82;4.32;;;;;;;;;;5092492;28;20067;-79
2022/01/07 03:45:32;;;;;;;16.70;4.45;;;;;;;;;;5092329;28;20024;-79
2022/01/07 03:47:58;;;;;;;9.13;3.88;;;;;;;;;;5091957;28;20078;-79
2022/01/07 03:50:26;;;;;;;9.35;4.22;;;;;;;;;;5092148;28;20410;-78
2022/01/07 03:52:53;;;;;;;8.82;4.07;;;;;;;;;;5092248;28;20028;-79
2022/01/07 03:55:20;;;;;;;11.35;4.60;;;;;;;;;;5092079;28;20162;-79
2022/01/07 03:57:46;;;;;;;16.67;5.30;;;;;;;;;;5092377;28;20077;-79
2022/01/07 04:00:14;;;;;;;13.13;5.03;;;;;;;;;;5092153;28;20417;-79
2022/01/07 04:02:41;;;;;;;13.20;4.95;;;;;;;;;;5092220;28;20358;-79
2022/01/07 04:05:07;;;;;;;15.13;5.00;;;;;;;;;;5092494;28;20062;-80
2022/01/07 04:07:33;;;;;;;18.67;5.35;;;;;;;;;;5092307;28;20086;-80
2022/01/07 04:09:59;;;;;;;8.35;4.97;;;;;;;;;;5084420;28;20336;-79
2022/01/07 04:12:26;;;;;;;8.90;5.20;;;;;;;;;;5072132;28;20025;-79
2022/01/07 04:15:02;;;;;;;9.32;4.97;;;;;;;;;;5071762;28;20109;-79
2022/01/07 04:17:29;;;;;;;8.23;4.43;;;;;;;;;;5072140;28;20029;-80
2022/01/07 04:19:55;;;;;;;8.55;4.75;;;;;;;;;;5072079;28;20036;-79
2022/01/07 04:22:21;;;;;;;10.35;4.90;;;;;;;;;;5072111;28;20086;-79
2022/01/07 04:24:47;;;;;;;9.10;4.65;;;;;;;;;;5071952;28;20032;-79
2022/01/07 04:27:13;;;;;;;8.57;5.05;;;;;;;;;;5073883;28;20032;-79
2022/01/07 04:29:39;;;;;;;13.55;5.30;;;;;;;;;;5076061;28;20429;-79
2022/01/07 04:32:06;;;;;;;13.43;5.65;;;;;;;;;;5075673;28;20021;-79
2022/01/07 04:34:32;;;;;;;12.45;5.50;;;;;;;;;;5075816;28;20013;-79
2022/01/07 04:36:58;;;;;;;11.07;5.88;;;;;;;;;;5075825;28;20455;-79
2022/01/07 04:39:25;;;;;;;9.88;5.45;;;;;;;;;;5082983;28;20123;-79
2022/01/07 04:41:51;;;;;;;13.63;5.82;;;;;;;;;;5095570;28;20147;-79
2022/01/07 04:44:19;;;;;;;12.35;6.00;;;;;;;;;;5095401;28;20040;-79
2022/01/07 04:46:45;;;;;;;13.55;6.30;;;;;;;;;;5095743;28;20043;-79
2022/01/07 04:49:11;;;;;;;12.32;6.30;;;;;;;;;;5095604;28;20125;-79
2022/01/07 04:51:37;;;;;;;14.77;6.90;;;;;;;;;;5095694;28;20073;-79
2022/01/07 04:54:03;;;;;;;11.35;5.97;;;;;;;;;;5095573;28;20016;-79
2022/01/07 04:56:29;;;;;;;14.68;6.53;;;;;;;;;;5095640;28;20020;-78
2022/01/07 04:58:55;;;;;;;8.13;5.85;;;;;;;;;;5096152;28;20670;-80
2022/01/07 05:01:21;;;;;;;14.23;6.82;;;;;;;;;;5095395;28;20032;-79
2022/01/07 05:03:47;;;;;;;10.75;6.25;;;;;;;;;;5095634;28;20035;-80
2022/01/07 05:06:43;;;;;;;11.02;6.43;;;;;;;;;;5095709;28;20024;-79
2022/01/07 05:08:59;;;;;;;14.27;7.20;;;;;;;;;;5095408;28;20029;-79
2022/01/07 05:11:25;;;;;;;14.23;7.05;;;;;;;;;;5094006;28;20128;-80
2022/01/07 05:13:51;;;;;;;15.48;7.40;;;;;;;;;;5116136;28;20019;-80
2022/01/07 05:16:17;;;;;;;13.95;7.78;;;;;;;;;;5115915;28;20189;-80
2022/01/07 05:18:43;;;;;;;13.80;7.93;;;;;;;;;;5115384;28;20149;-79
2022/01/07 05:21:09;;;;;;;12.90;7.68;;;;;;;;;;5115748;28;20073;-79
2022/01/07 05:23:35;;;;;;;12.20;7.47;;;;;;;;;;5115509;28;20024;-79
2022/01/07 05:26:03;;;;;;;15.13;8.40;;;;;;;;;;5115452;28;20419;-80
2022/01/07 05:28:29;;;;;;;16.83;9.10;;;;;;;;;;5110264;28;20164;-79
2022/01/07 05:30:55;;;;;;;13.65;8.93;;;;;;;;;;5115596;28;20012;-80
2022/01/07 05:33:21;;;;;;;16.88;9.15;;;;;;;;;;5115328;28;20042;-79
2022/01/07 05:35:47;;;;;;;14.98;8.45;;;;;;;;;;5115502;28;20015;-79
2022/01/07 05:38:13;;;;;;;20.08;10.23;;;;;;;;;;5105604;28;20404;-79
2022/01/07 05:40:39;;;;;;;19.88;9.85;;;;;;;;;;5115039;28;20062;-79
2022/01/07 05:43:05;;;;;;;15.68;9.82;;;;;;;;;;5114975;28;20051;-79
2022/01/07 05:45:31;;;;;;;19.23;10.23;;;;;;;;;;5115330;28;20027;-79
2022/01/07 05:47:57;;;;;;;15.85;10.57;;;;;;;;;;5115150;28;20031;-79
2022/01/07 05:50:23;;;;;;;19.15;10.88;;;;;;;;;;5114820;28;20019;-78
2022/01/07 05:52:49;;;;;;;21.77;11.93;;;;;;;;;;5096253;28;20029;-78
2022/01/07 05:55:15;;;;;;;23.70;11.38;;;;;;;;;;5113919;28;20022;-79
2022/01/07 05:57:41;;;;;;;21.33;11.68;;;;;;;;;;5094343;28;20035;-79
2022/01/07 06:00:09;;;;;;;20.52;12.50;;;;;;;;;;5094102;28;20089;-79
2022/01/07 06:02:35;;;;;;;23.27;12.63;;;;;;;;;;5094167;28;20028;-79
2022/01/07 06:05:02;;;;;;;22.38;14.88;;;;;;;;;;5094115;28;20042;-79
2022/01/07 06:07:28;;;;;;;26.88;14.02;;;;;;;;;;5093921;28;20016;-79
2022/01/07 06:09:54;;;;;;;24.33;15.07;;;;;;;;;;5093704;28;20466;-79
2022/01/07 06:12:20;;;;;;;22.98;14.73;;;;;;;;;;5094146;28;20032;-79
2022/01/07 06:14:46;;;;;;;29.08;15.30;;;;;;;;;;5094056;28;20404;-79
2022/01/07 06:17:12;;;;;;;28.42;16.58;;;;;;;;;;5093743;28;20104;-79
2022/01/07 06:19:39;;;;;;;26.95;15.85;;;;;;;;;;5093585;28;20028;-79
2022/01/07 06:22:05;;;;;;;28.38;15.55;;;;;;;;;;5093900;28;20486;-78
2022/01/07 06:24:31;;;;;;;25.27;15.82;;;;;;;;;;5093488;28;20020;-79
2022/01/07 06:26:58;;;;;;;35.38;16.98;;;;;;;;;;5075441;28;20066;-79
2022/01/07 06:29:24;;;;;;;31.45;16.85;;;;;;;;;;5093306;28;20028;-79
2022/01/07 06:31:50;;;;;;;26.50;16.98;;;;;;;;;;5093647;28;20106;-79
2022/01/07 06:34:20;;;;;;;28.15;17.58;;;;;;;;;;5093414;28;20120;-79
2022/01/07 06:36:46;;;;;;;26.65;17.67;;;;;;;;;;5075123;28;20016;-78
2022/01/07 06:39:12;;;;;;;32.20;18.80;;;;;;;;;;5079355;28;20508;-79
2022/01/07 06:41:38;;;;;;;30.80;17.55;;;;;;;;;;5073227;28;20048;-79
2022/01/07 06:44:04;;;;;;;31.98;17.23;;;;;;;;;;5072890;28;20035;-78
2022/01/07 06:46:30;;;;;;;32.92;17.42;;;;;;;;;;5073141;28;20045;-79
2022/01/07 06:48:56;;;;;;;30.83;16.73;;;;;;;;;;5072671;28;20029;-78
2022/01/07 06:51:22;;;;;;;33.22;17.45;;;;;;;;;;5072664;28;20020;-78
2022/01/07 06:53:48;;;;;;;33.05;18.23;;;;;;;;;;5072704;28;20032;-79
2022/01/07 06:56:14;;;;;;;28.92;15.80;;;;;;;;;;5077972;28;20016;-79
2022/01/07 06:58:42;;;;;;;32.35;18.27;;;;;;;;;;5093402;28;20028;-79
2022/01/07 07:01:08;;;;;;;33.92;17.55;;;;;;;;;;5092999;28;20066;-79
2022/01/07 07:03:40;;;;;;;35.00;17.95;;;;;;;;;;5093046;28;20047;-79
2022/01/07 07:06:06;;;;;;;35.33;17.10;;;;;;;;;;5093199;28;20024;-79
2022/01/07 07:08:32;;;;;;;35.88;17.80;;;;;;;;;;5092880;28;20123;-79
2022/01/07 07:10:58;;;;;;;31.08;17.70;;;;;;;;;;5076542;28;20083;-79
2022/01/07 07:13:24;;;;;;;27.50;16.65;;;;;;;;;;5072608;28;20059;-79
2022/01/07 07:15:51;;;;;;;32.85;17.55;;;;;;;;;;5054303;28;20386;-78
2022/01/07 07:18:17;;;;;;;41.78;18.60;;;;;;;;;;5072432;28;20060;-78
2022/01/07 07:20:43;;;;;;;32.13;17.40;;;;;;;;;;5072548;28;20048;-78
2022/01/07 07:23:09;;;;;;;26.73;16.27;;;;;;;;;;5072229;28;20025;-79
2022/01/07 07:25:36;;;;;;;31.23;15.85;;;;;;;;;;5072366;28;20091;-77
2022/01/07 07:28:02;;;;;;;30.25;16.17;;;;;;;;;;5072473;28;20028;-79
2022/01/07 07:30:36;;;;;;;28.63;15.85;;;;;;;;;;5072200;28;20032;-78
2022/01/07 07:33:28;;;;;;;36.78;17.65;;;;;;;;;;5072138;28;20054;-78
2022/01/07 07:38:37;;;;;;;27.25;16.65;;;;;;;;;;5080901;28;20070;-78
2022/01/07 07:41:06;;;;;;;25.15;16.50;;;;;;;;;;5092025;28;20440;-78
2022/01/07 07:43:32;;;;;;;30.92;17.60;;;;;;;;;;5073955;28;20086;-78
2022/01/07 07:45:58;;;;;;;32.60;17.58;;;;;;;;;;5074072;28;20440;-78
2022/01/07 07:48:24;;;;;;;35.58;17.08;;;;;;;;;;5092086;28;20055;-78
2022/01/07 07:50:50;;;;;;;31.95;16.83;;;;;;;;;;5092138;28;20043;-79
2022/01/07 07:53:16;;;;;;;31.98;15.32;;;;;;;;;;5074217;28;20466;-79
2022/01/07 07:55:44;;;;;;;29.85;16.58;;;;;;;;;;5092020;28;20070;-78
2022/01/07 07:58:10;;;;;;;33.92;16.77;;;;;;;;;;5073886;28;20047;-78
2022/01/07 08:00:36;;;;;;;30.67;16.90;;;;;;;;;;5092341;28;20450;-78
2022/01/07 08:03:02;;;;;;;25.20;16.10;;;;;;;;;;5095695;28;20063;-79
2022/01/07 08:05:28;;;;;;;30.85;16.85;;;;;;;;;;5078192;28;20478;-78
2022/01/07 08:07:54;;;;;;;32.88;18.88;;;;;;;;;;5096299;28;20028;-76
2022/01/07 08:10:24;;;;;;;33.35;17.15;;;;;;;;;;5085315;28;20024;-79
2022/01/07 08:12:53;;;;;;;32.40;17.27;;;;;;;;;;5075992;28;20020;-79
2022/01/07 08:18:05;;;;;;;33.72;17.30;;;;;;;;;;5086731;28;20097;-76
2022/01/07 08:20:31;;;;;;;30.08;16.55;;;;;;;;;;5067869;28;20032;-77
2022/01/07 08:22:57;;;;;;;32.58;16.10;;;;;;;;;;5091966;28;20072;-78
2022/01/07 08:25:24;;;;;;;32.47;16.48;;;;;;;;;;5098145;28;20107;-78
2022/01/07 08:27:50;;;;;;;29.35;16.75;;;5.20;99.90;;;;;;5097951;28;20078;-79
2022/01/07 08:30:24;;;;;;;29.13;16.42;;;;;;;;;;5097294;28;20013;-78
2022/01/07 08:35:38;;;;;;;34.92;17.33;;;;;;;;;;5095419;28;20134;-78
2022/01/07 08:38:04;;;;;;;31.05;17.50;;;;;;;;;;5091352;28;20354;-78
2022/01/07 08:40:31;;;;;;;32.72;17.98;;;;;;;;;;5105338;28;20035;-78
2022/01/07 08:42:57;;;;;;;36.92;18.85;;;;;;;;;;5092073;28;20501;-78
2022/01/07 08:45:25;;;;;;;33.05;18.98;;;;;;;;;;5096017;28;20031;-78
2022/01/07 08:47:51;;;;;;;31.65;17.85;;;;;;;;;;5071863;28;20039;-79
2022/01/07 08:50:17;;;;;;;42.63;18.27;;;;;;;;;;5093382;28;20469;-78
2022/01/07 08:52:44;;;;;;;33.05;17.50;;;;;;;;;;5089055;28;20050;-79
2022/01/07 08:55:11;;;;;;;39.88;17.73;;;;;;;;;;5099024;28;20412;-78
2022/01/07 08:57:37;;;;;;;26.42;15.90;;;;;;;;;;5100405;28;20043;-78
2022/01/07 09:00:03;;;;;;;33.05;16.58;;;;;;;;;;5115369;28;20070;-79
2022/01/07 09:02:29;;;;;;;25.90;15.35;;;;;;;;;;5115611;28;20024;-79
2022/01/07 09:04:56;;;;;;;30.08;15.75;;;;;;;;;;5115497;28;20535;-78
2022/01/07 09:07:22;;;;;;;25.20;14.82;;;;;;;;;;5114906;28;20011;-79
2022/01/07 09:09:48;;;;;;;31.38;16.63;;;;;;;;;;5084887;28;20028;-78
2022/01/07 09:12:14;;;;;;;27.25;15.95;;;;;;;;;;5112850;28;20350;-78
2022/01/07 09:14:40;;;;;;;26.83;16.63;;;;;;;;;;5114777;28;20051;-78
2022/01/07 09:17:06;;;;;;;25.75;15.77;;;;;;;;;;5114361;28;20023;-78
2022/01/07 09:19:33;;;;;;;26.02;14.38;;;;;;;;;;5114769;28;20063;-79
2022/01/07 09:21:59;;;;;;;28.52;14.98;;;;;;;;;;5114887;28;20024;-78
2022/01/07 09:24:26;;;;;;;31.17;14.73;;;;;;;;;;5114309;28;20401;-78
2022/01/07 09:26:53;;;;;;;30.30;13.70;;;;;;;;;;5114497;28;20469;-79
2022/01/07 09:29:22;;;;;;;25.10;14.50;;;;;;;;;;5114474;28;20027;-78
2022/01/07 09:31:48;;;;;;;26.15;15.25;;;;;;;;;;5114554;28;20106;-78
2022/01/07 09:34:14;;;;;;;34.20;13.55;;;;;;;;;;5114838;28;20027;-77
2022/01/07 09:36:40;;;;;;;20.55;12.02;;;;;;;;;;5114814;28;20024;-77
2022/01/07 09:39:06;;;;;;;19.70;12.32;;;;;;;;;;5101347;28;20024;-77
2022/01/07 09:41:32;;;;;;;27.45;11.82;;;;;;;;;;5094092;28;20474;-78
2022/01/07 09:44:01;;;;;;;23.65;12.15;;;;;;;;;;5094723;28;20078;-78
2022/01/07 09:46:27;;;;;;;27.67;12.18;;;;;;;;;;5096154;28;20039;-79
2022/01/07 09:48:53;;;;;;;23.98;11.23;;;;;;;;;;5112873;28;20019;-78
2022/01/07 09:51:19;;;;;;;20.98;11.02;;;;;;;;;;5104276;28;20094;-78
2022/01/07 09:53:45;;;;;;;28.15;11.45;;;5.90;99.90;;;;;;5114255;28;20024;-79
2022/01/07 09:56:11;;;;;;;19.92;9.88;;;;;;;;;;5105667;28;20031;-75
2022/01/07 09:58:38;;;;;;;18.70;10.45;;;;;;;;;;5114125;28;20027;-79
2022/01/07 10:01:05;;;;;;;19.63;9.65;;;;;;;;;;5114746;28;20019;-80
2022/01/07 10:03:42;;;;;;;18.67;10.07;;;6.00;99.90;;;;;;5100994;28;20020;-79
2022/01/07 10:06:16;;;;;;;18.02;9.32;;;;;;;;;;5106767;28;20028;-79
2022/01/07 10:08:42;;;;;;;19.42;10.45;;;;;;;;;;5100400;28;20791;-79
2022/01/07 10:11:19;;;;;;;23.20;10.60;;;;;;;;;;5107693;28;20034;-80
2022/01/07 10:13:46;;;;;;;21.90;10.05;;;;;;;;;;5099818;28;20370;-80
2022/01/07 10:16:20;;;;;;;23.13;9.10;;;;;;;;;;5110340;28;20086;-74
2022/01/07 10:18:47;;;;;;;21.90;9.05;;;;;;;;;;5094066;28;20027;-79
2022/01/07 10:21:13;;;;;;;20.10;9.70;;;;;;;;;;5099858;28;20026;-79
2022/01/07 10:23:39;;;;;;;16.73;9.20;;;;;;;;;;5102621;28;20069;-78
2022/01/07 10:26:11;;;;;;;20.38;9.18;;;;;;;;;;5105013;28;20016;-79
2022/01/07 10:28:37;;;;;;;16.38;8.95;;;;;;;;;;5099871;28;20027;-79
2022/01/07 10:31:03;;;;;;;19.90;8.57;;;;;;;;;;5095600;28;20104;-78
2022/01/07 10:33:40;;;;;;;20.20;8.30;;;;;;;;;;5096374;28;20050;-78
2022/01/07 10:36:08;;;;;;;20.20;7.20;;;6.30;99.90;;;;;;5077378;28;20048;-78
2022/01/07 10:39:00;;;;;;;13.35;7.53;;;6.30;99.90;;;;;;5090216;28;20457;-79
2022/01/07 10:41:25;;;;;;;15.95;8.77;;;6.40;99.90;;;;;;5101361;28;20085;-80
2022/01/07 10:43:55;;;;;;;15.40;7.40;;;6.40;99.90;;;;;;5105053;28;20419;-80
2022/01/07 10:46:31;;;;;;;14.45;7.57;;;6.50;99.90;;;;;;5055957;28;20412;-80
2022/01/07 10:49:00;;;;;;;17.83;7.45;;;6.40;99.90;;;;;;5093628;28;20051;-79
2022/01/07 10:51:31;;;;;;;16.00;6.82;;;6.50;99.90;;;;;;5108888;28;20023;-79
2022/01/07 10:54:02;;;;;;;17.92;7.35;;;6.50;99.90;;;;;;5108291;28;20034;-78
2022/01/07 10:56:43;;;;;;;21.23;8.32;;;6.60;99.90;;;;;;5113535;28;20019;-78
2022/01/07 10:59:16;;;;;;;16.35;6.75;;;6.70;99.90;;;;;;5094072;28;20020;-77
2022/01/07 11:01:50;;;;;;;15.68;6.63;;;6.70;99.90;;;;;;5068785;28;20033;-78
2022/01/07 11:04:30;;;;;;;21.02;7.00;;;6.80;99.90;;;;;;5053565;28;20553;-78
2022/01/07 11:06:58;;;;;;;14.95;6.00;;;6.80;99.90;;;;;;5071886;28;20470;-78
2022/01/07 11:09:24;;;;;;;18.55;7.00;;;6.50;99.90;;;;;;5074511;28;20020;-78
2022/01/07 11:11:53;;;;;;;14.75;5.60;;;6.50;99.90;;;;;;5074513;28;20115;-79
2022/01/07 11:14:21;;;;;;;16.13;4.93;;;;;;;;;;5091843;28;20085;-78
2022/01/07 11:16:48;;;;;;;11.25;4.85;;;;;;;;;;5092349;28;20077;-78
2022/01/07 11:19:18;;;;;;;15.90;5.15;;;;;;;;;;5092242;28;20035;-78
2022/01/07 11:21:47;;;;;;;15.93;5.45;;;;;;;;;;5092464;28;20103;-79
2022/01/07 11:24:32;;;;;;;11.30;4.43;;;;;;;;;;5092090;28;20085;-77
2022/01/07 11:26:59;;;;;;;11.98;5.57;;;;;;;;;;5091626;28;20035;-75
2022/01/07 11:29:25;;;;;;;14.20;5.55;;;;;;;;;;5091801;28;20425;-75
2022/01/07 11:31:51;;;;;;;11.52;5.13;;;;;;;;;;5097381;28;20020;-75
2022/01/07 11:34:20;;;;;;;15.20;4.93;;;7.10;99.90;;;;;;5102745;28;20058;-75
2022/01/07 11:36:46;;;;;;;15.55;5.75;;;7.10;99.90;;;;;;5094695;28;20069;-80
2022/01/07 11:39:12;;;;;;;16.77;5.03;;;7.10;99.90;;;;;;5101843;28;20419;-77
2022/01/07 11:41:47;;;;;;;11.50;4.47;;;7.10;99.90;;;;;;5099640;28;20079;-77
2022/01/07 11:44:21;;;;;;;13.50;4.20;;;7.20;99.90;;;;;;5097815;28;20023;-75
2022/01/07 11:46:47;;;;;;;9.15;3.83;;;7.20;99.90;;;;;;5083911;28;20027;-77
2022/01/07 11:49:33;;;;;;;13.35;3.90;;;7.30;99.90;;;;;;5102892;28;20023;-78
2022/01/07 11:52:29;;;;;;;12.13;3.72;;;7.20;99.90;;;;;;5100788;28;20103;-78
2022/01/07 11:55:21;;;;;;;16.25;3.70;;;7.10;99.90;;;;;;5081195;28;20093;-79
2022/01/07 11:57:52;;;;;;;15.80;3.10;;;6.90;99.90;;;;;;5095218;28;20025;-77
2022/01/07 12:00:52;;;;;;;15.07;3.50;;;6.90;99.90;;;;;;5097288;28;20032;-77
2022/01/07 12:03:31;;;;;;;10.70;3.20;;;;;;;;;;5100236;28;20782;-76
2022/01/07 12:05:57;;;;;;;17.88;3.03;;;;;;;;;;5101438;28;20036;-75
2022/01/07 12:08:43;;;;;;;11.07;2.45;;;;;;;;;;5081878;28;20051;-76
2022/01/07 12:11:10;;;;;;;10.73;2.10;;;;;;;;;;5002756;28;20033;-77
2022/01/07 12:13:38;;;;;;;12.65;2.60;;;;;;;;;;5028715;28;20041;-76
2022/01/07 12:16:04;;;;;;;10.70;2.30;;;;;;;;;;5023722;28;20042;-77
2022/01/07 12:18:33;;;;;;;14.73;3.28;;;;;;;;;;5029121;28;20029;-76
2022/01/07 12:20:59;;;;;;;12.32;2.10;;;;;;;;;;5029225;28;20029;-75
2022/01/07 12:23:25;;;;;;;14.57;2.47;;;;;;;;;;5029201;28;20121;-80
2022/01/07 12:25:52;;;;;;;12.88;2.63;;;;;;;;;;5029331;28;20101;-77
2022/01/07 12:28:19;;;;;;;12.60;2.08;;;;;;;;;;5028883;28;20088;-77
2022/01/07 12:30:46;;;;;;;10.73;2.00;;;;;;;;;;5029685;28;20387;-80
2022/01/07 12:33:13;;;;;;;13.30;2.42;;;;;;;;;;5030436;28;20022;-78
2022/01/07 12:35:39;;;;;;;12.93;2.30;;;;;;;;;;5029695;28;20630;-78
2022/01/07 12:38:17;;;;;;;13.80;2.10;;;7.10;99.90;;;;;;5020942;28;20137;-79
2022/01/07 12:40:52;;;;;;;12.65;2.15;;;7.20;99.90;;;;;;4990425;28;20026;-78
2022/01/07 12:43:20;;;;;;;13.85;2.45;;;;;;;;;;4990304;28;20042;-80
2022/01/07 12:45:55;;;;;;;16.92;1.90;;;;;;;;;;4990445;28;20109;-79
2022/01/07 12:48:30;;;;;;;11.38;2.30;;;;;;;;;;5017618;28;20047;-77
2022/01/07 12:51:00;;;;;;;14.25;2.30;;;;;;;;;;5075198;28;20021;-81
2022/01/07 12:53:26;;;;;;;10.60;1.95;;;;;;;;;;5075704;28;20421;-81
2022/01/07 12:55:52;;;;;;;6.82;1.77;;;;;;;;;;5075615;28;20103;-79
2022/01/07 12:58:26;;;;;;;12.63;2.20;;;;;;;;;;5076092;28;20067;-80
2022/01/07 13:00:52;;;;;;;11.02;1.88;;;7.00;99.90;;;;;;5075829;28;20081;-81
2022/01/07 13:03:25;;;;;;;10.65;2.00;;;;;;;;;;5057502;28;20507;-78
2022/01/07 13:05:51;;;;;;;4.68;1.35;;;6.80;99.90;;;;;;5074689;28;20033;-77
2022/01/07 13:08:18;;;;;;;5.57;1.20;;;6.80;99.90;;;;;;5074448;28;20035;-77
2022/01/07 13:10:58;;;;;;;3.53;0.70;;;6.70;99.90;;;;;;5074579;28;20047;-77
2022/01/07 13:13:24;;;;;;;6.32;0.85;;;6.60;99.90;;;;;;5074811;28;20324;-78
2022/01/07 13:15:53;;;;;;;7.90;1.80;;;6.40;99.90;;;;;;5074730;28;20024;-77
2022/01/07 13:18:30;;;;;;;5.13;0.80;;;;;;;;;;5074582;28;20390;-77
2022/01/07 13:21:06;;;;;;;4.03;0.60;;;6.00;99.90;;;;;;5096581;28;20112;-77
2022/01/07 13:23:37;;;;;;;3.03;0.60;;;5.80;99.90;;;;;;5108913;28;20537;-78
2022/01/07 13:26:03;;;;;;;4.25;0.50;;;;;;;;;;5090674;28;20027;-78
2022/01/07 13:28:39;;;;;;;3.00;0.50;;;;;;;;;;5106684;28;20084;-78
2022/01/07 13:31:06;;;;;;;1.08;0.40;;;;;;;;;;5095082;28;20095;-78
2022/01/07 13:33:33;;;;;;;0.65;0.30;;;;;;;;;;5100085;28;20490;-78
2022/01/07 13:36:01;;;;;;;3.42;0.70;;;;;;;;;;5101927;28;20020;-78
2022/01/07 13:38:28;;;;;;;4.68;0.80;;;;;;;;;;5105181;28;20371;-78
2022/01/07 13:41:04;;;;;;;2.17;0.50;;;;;;;;;;5109992;28;20555;-79
2022/01/07 13:43:31;;;;;;;4.28;0.63;;;;;;;;;;5103945;28;20382;-80
2022/01/07 13:46:09;;;;;;;4.55;0.50;;;;;;;;;;5083636;28;20047;-81
2022/01/07 13:48:47;;;;;;;1.67;0.52;;;;;;;;;;5097965;28;20039;-79
2022/01/07 13:51:13;;;;;;;2.28;0.75;;;;;;;;;;5099405;28;20107;-80
2022/01/07 13:53:39;;;;;;;5.85;0.82;;;;;;;;;;5100314;28;20448;-80
2022/01/07 13:56:06;;;;;;;5.75;0.70;;;;;;;;;;5113516;28;20051;-80
2022/01/07 13:58:32;;;;;;;4.72;1.38;;;;;;;;;;5094689;28;20050;-80
2022/01/07 14:01:04;;;;;;;7.07;1.60;;;;;;;;;;5093848;28;20112;-80
2022/01/07 14:03:47;;;;;;;6.38;1.77;;;;;;;;;;5094006;28;20059;-79
2022/01/07 14:06:13;;;;;;;;;;;;;;;;;;5076298;28;20031;-78
2022/01/07 14:12:00;;;;;;;3.95;0.80;;;;;;;;;;5073850;28;20028;-77
2022/01/07 14:14:34;;;;;;;6.50;0.73;;;;;;;;;;5078634;28;20083;-76
2022/01/07 14:17:07;;;;;;;5.22;0.73;;;;;;;;;;5093207;28;20025;-76
2022/01/07 14:19:55;;;;;;;8.75;1.13;;;;;;;;;;5074734;28;20028;-77
2022/01/07 14:22:22;;;;;;;4.00;0.88;;;;;;;;;;5075158;28;20483;-75
2022/01/07 14:24:48;;;;;;;4.88;0.80;;;;;;;;;;5075120;28;20074;-76
2022/01/07 14:27:33;;;;;;;3.10;0.60;;;;;;;;;;5077520;28;20027;-77
2022/01/07 14:29:59;;;;;;;6.93;1.05;;;;;;;;;;5074623;28;20033;-77
2022/01/07 14:32:26;;;;;;;3.80;0.98;;;;;;;;;;5084973;28;20021;-76